createdAt,value
2023-01-17T00:02:24.170Z,9.10
2023-01-17T00:05:10.919Z,8.80
2023-01-17T00:07:57.432Z,12.50
2023-01-17T00:10:27.861Z,9.60
2023-01-17T00:12:57.589Z,8.50
2023-01-17T00:15:26.889Z,9.50
2023-01-17T00:17:54.928Z,9.60
2023-01-17T00:20:51.161Z,10.40
2023-01-17T00:23:43.899Z,10.80
2023-01-17T00:26:15.677Z,8.80
2023-01-17T00:31:13.701Z,9.20
2023-01-17T00:33:41.611Z,9.40
2023-01-17T00:36:10.313Z,11.10
2023-01-17T00:38:39.776Z,8.60
2023-01-17T00:41:09.210Z,9.20
2023-01-17T00:43:55.820Z,10.20
2023-01-17T00:46:42.486Z,10.70
2023-01-17T00:49:29.224Z,10.50
2023-01-17T00:52:15.826Z,12.40
2023-01-17T00:55:02.118Z,9.60
2023-01-17T00:57:49.143Z,12.70
2023-01-17T07:01:13.305Z,14.20
2023-01-17T07:03:42.910Z,13.40
2023-01-17T07:06:10.978Z,11.70
2023-01-17T07:08:38.799Z,13.30
2023-01-17T07:11:08.385Z,12.60
2023-01-17T07:13:37.997Z,10.50
2023-01-17T07:16:07.710Z,9.50
2023-01-17T07:18:35.551Z,9.40
2023-01-17T07:21:03.543Z,12.10
2023-01-17T07:23:31.504Z,11.70
2023-01-17T07:26:00.813Z,10.50
2023-01-17T07:28:29.099Z,11.60
2023-01-17T07:30:57.540Z,9.90
2023-01-17T07:33:25.507Z,9.40
2023-01-17T07:35:53.385Z,9.50
2023-01-17T07:38:21.276Z,15.40
2023-01-17T07:40:49.265Z,13.50
2023-01-17T07:43:17.480Z,11.70
2023-01-17T07:45:50.985Z,12.30
2023-01-17T07:48:21.308Z,8.70
2023-01-17T07:50:56.954Z,8.80
2023-01-17T07:53:30.051Z,10.60
2023-01-17T07:56:02.715Z,11.10
2023-01-17T07:58:31.401Z,12.10
2023-01-17T08:01:07.906Z,11.70
2023-01-17T08:03:40.082Z,16.80
2023-01-17T08:06:25.614Z,12.30
2023-01-17T08:08:56.661Z,10.00
2023-01-17T08:11:25.270Z,9.20
2023-01-17T08:13:57.603Z,10.00
2023-01-17T08:16:27.181Z,12.50
2023-01-17T08:18:56.401Z,9.70
2023-01-17T08:21:24.427Z,10.80
2023-01-17T08:23:52.860Z,10.00
2023-01-17T08:26:22.415Z,13.10
2023-01-17T08:29:01.076Z,9.30
2023-01-17T08:31:31.961Z,13.30
2023-01-17T08:34:00.123Z,11.00
2023-01-17T08:36:28.837Z,9.00
2023-01-17T08:38:57.615Z,8.70
2023-01-17T08:41:27.844Z,11.20
2023-01-17T08:43:55.648Z,12.00
2023-01-17T08:46:24.578Z,10.10
2023-01-17T08:48:58.860Z,12.40
2023-01-17T08:51:27.867Z,9.80
2023-01-17T08:53:56.631Z,10.70
2023-01-17T08:56:26.139Z,12.10
2023-01-17T08:58:54.042Z,13.00
2023-01-17T09:01:21.905Z,8.20
2023-01-17T09:03:51.528Z,12.40
2023-01-17T09:06:19.490Z,8.00
2023-01-17T09:08:48.643Z,10.90
2023-01-17T09:11:17.548Z,10.60
2023-01-17T09:13:45.398Z,9.60
2023-01-17T09:16:13.305Z,10.70
2023-01-17T09:18:41.062Z,11.20
2023-01-17T09:21:18.894Z,11.30
2023-01-17T09:26:29.101Z,9.50
2023-01-17T09:28:58.834Z,9.90
2023-01-17T09:31:29.854Z,8.70
2023-01-17T09:33:58.528Z,8.80
2023-01-17T09:36:29.244Z,10.80
2023-01-17T09:38:58.363Z,8.30
2023-01-17T09:41:42.815Z,10.00
2023-01-17T09:44:36.590Z,10.60
2023-01-17T09:47:40.769Z,10.90
2023-01-17T09:50:20.804Z,9.00
2023-01-17T09:52:48.591Z,8.50
2023-01-17T09:55:17.792Z,9.20
2023-01-17T09:58:20.496Z,7.20
2023-01-17T10:01:12.373Z,11.90
2023-01-17T10:04:01.692Z,9.70
2023-01-17T10:06:43.701Z,9.70
2023-01-17T10:09:41.713Z,9.10
2023-01-17T10:12:28.571Z,9.10
2023-01-17T10:15:45.286Z,10.30
2023-01-17T10:18:28.894Z,9.20
2023-01-17T10:21:08.968Z,9.20
2023-01-17T10:24:21.377Z,10.60
2023-01-17T10:26:52.989Z,8.80
2023-01-17T10:29:21.244Z,9.30
2023-01-17T10:31:59.238Z,7.80
2023-01-17T10:37:20.540Z,12.40
2023-01-17T10:39:50.222Z,8.20
2023-01-17T10:42:32.970Z,8.50
2023-01-17T10:45:16.699Z,9.00
2023-01-17T10:47:51.942Z,9.40
2023-01-17T10:50:22.695Z,12.80
2023-01-17T10:52:51.697Z,8.70
2023-01-17T10:55:47.589Z,8.70
2023-01-17T10:58:15.456Z,10.90
2023-01-17T11:00:49.472Z,11.60
2023-01-17T11:03:24.054Z,9.50
2023-01-17T11:06:22.380Z,12.50
2023-01-17T11:08:52.439Z,11.60
2023-01-17T11:11:23.742Z,11.00
2023-01-17T11:13:55.190Z,9.70
2023-01-17T11:16:29.800Z,8.50
2023-01-17T11:19:08.823Z,9.80
2023-01-17T11:21:39.560Z,9.60
2023-01-17T11:24:17.885Z,8.40
2023-01-17T11:26:49.649Z,10.80
2023-01-17T11:29:37.250Z,11.70
2023-01-17T11:32:23.882Z,9.20
2023-01-17T11:35:10.062Z,10.10
2023-01-17T11:37:38.026Z,9.20
2023-01-17T11:40:17.055Z,9.60
2023-01-17T11:42:45.123Z,8.20
2023-01-17T11:45:26.105Z,9.50
2023-01-17T11:48:09.655Z,9.00
2023-01-17T11:50:56.257Z,8.30
2023-01-17T11:53:24.204Z,8.80
2023-01-17T11:56:05.450Z,10.50
2023-01-17T11:58:36.876Z,12.10
2023-01-17T12:03:44.868Z,10.40
2023-01-17T12:06:56.562Z,11.80
2023-01-17T12:09:37.637Z,9.30
2023-01-17T12:12:30.060Z,11.80
2023-01-17T12:15:22.908Z,8.20
2023-01-17T12:18:09.973Z,10.50
2023-01-17T12:20:41.691Z,11.20
2023-01-17T12:23:28.547Z,11.60
2023-01-17T12:26:09.228Z,11.70
2023-01-17T12:29:06.727Z,13.50
2023-01-17T12:31:52.925Z,10.40
2023-01-17T12:34:34.703Z,10.60
2023-01-17T12:37:18.369Z,10.20
2023-01-17T12:39:56.151Z,10.20
2023-01-17T12:45:06.126Z,12.40
2023-01-17T12:47:43.100Z,11.50
2023-01-17T12:50:28.865Z,10.30
2023-01-17T12:53:06.635Z,11.40
2023-01-17T12:58:25.249Z,11.80
2023-01-17T13:01:19.398Z,10.90
2023-01-17T13:04:25.701Z,8.90
2023-01-17T13:07:00.163Z,11.30
2023-01-17T13:09:51.817Z,9.70
2023-01-17T13:12:22.140Z,14.00
2023-01-17T13:14:50.228Z,11.60
2023-01-17T13:17:35.176Z,15.70
2023-01-17T13:20:32.127Z,10.90
2023-01-17T13:23:28.563Z,9.40
2023-01-17T13:25:59.464Z,13.40
2023-01-17T13:28:44.695Z,9.70
2023-01-17T13:31:34.906Z,9.30
2023-01-17T13:37:09.507Z,11.10
2023-01-17T13:40:26.900Z,9.10
2023-01-17T13:42:57.355Z,15.10
2023-01-17T13:45:31.309Z,10.60
2023-01-17T13:48:17.353Z,12.50
2023-01-17T13:50:48.793Z,12.90
2023-01-17T13:56:31.769Z,8.20
2023-01-17T13:59:02.911Z,9.30
2023-01-17T14:01:38.629Z,12.70
2023-01-17T14:04:11.211Z,11.00
2023-01-17T14:06:44.917Z,14.30
2023-01-17T14:09:12.695Z,10.40
2023-01-17T14:11:51.806Z,9.80
2023-01-17T14:14:44.502Z,13.50
2023-01-17T14:17:19.078Z,10.00
2023-01-17T14:19:50.250Z,11.80
2023-01-17T14:22:20.911Z,28.10
2023-01-17T14:25:19.844Z,30.50
2023-01-17T14:27:51.696Z,38.20
2023-01-17T14:30:24.481Z,34.60
2023-01-17T14:33:10.879Z,35.00
2023-01-17T14:35:48.787Z,43.00
2023-01-17T14:38:22.335Z,30.20
2023-01-17T14:40:54.379Z,26.20
2023-01-17T14:43:25.255Z,26.90
2023-01-17T14:46:02.222Z,26.00
2023-01-17T14:48:30.637Z,24.90
2023-01-17T14:51:02.015Z,20.90
2023-01-17T14:53:32.011Z,18.60
2023-01-17T14:56:12.668Z,17.10
2023-01-17T14:58:41.584Z,19.00
2023-01-17T15:01:18.899Z,18.40
2023-01-17T15:03:49.074Z,14.70
2023-01-17T15:06:23.628Z,25.40
2023-01-17T15:08:54.240Z,22.40
2023-01-17T15:11:26.581Z,23.50
2023-01-17T15:13:57.660Z,22.80
2023-01-17T15:16:29.328Z,21.50
2023-01-17T15:18:57.725Z,17.10
2023-01-17T15:21:31.639Z,19.60
2023-01-17T15:24:03.807Z,20.90
2023-01-17T15:26:35.487Z,21.50
2023-01-17T15:29:07.456Z,20.80
2023-01-17T15:31:46.103Z,21.50
2023-01-17T15:34:43.030Z,19.20
2023-01-17T15:37:41.505Z,17.20
2023-01-17T15:40:15.970Z,18.40
2023-01-17T15:42:47.724Z,19.10
2023-01-17T15:45:22.712Z,17.10
2023-01-17T15:47:50.599Z,17.50
2023-01-17T15:50:22.460Z,24.40
2023-01-17T15:52:52.655Z,33.80
2023-01-17T15:55:38.545Z,29.80
2023-01-17T15:58:24.536Z,31.60
2023-01-17T16:00:52.951Z,26.40
2023-01-17T16:03:25.386Z,26.70
2023-01-17T16:05:54.585Z,27.10
2023-01-17T16:08:27.255Z,28.10
2023-01-17T16:11:02.338Z,28.40
2023-01-17T16:13:35.913Z,23.80
2023-01-17T16:16:10.895Z,24.60
2023-01-17T16:18:40.468Z,28.20
2023-01-17T16:21:21.526Z,25.60
2023-01-17T16:23:50.079Z,27.70
2023-01-17T16:26:18.362Z,22.60
2023-01-17T16:28:47.047Z,22.20
2023-01-17T16:31:15.810Z,24.90
2023-01-17T16:33:44.254Z,24.40
2023-01-17T16:36:14.883Z,21.50
2023-01-17T16:38:48.852Z,27.40
2023-01-17T16:41:17.533Z,21.80
2023-01-17T16:43:45.400Z,21.40
2023-01-17T16:46:13.598Z,26.00
2023-01-17T16:48:41.440Z,21.90
2023-01-17T16:51:09.542Z,24.00
2023-01-17T16:53:37.824Z,28.20
2023-01-17T16:56:12.246Z,21.80
2023-01-17T16:58:40.683Z,26.20
2023-01-17T17:01:16.077Z,25.20
2023-01-17T17:03:44.763Z,22.20
2023-01-17T17:06:13.115Z,22.00
2023-01-17T17:08:41.156Z,20.40
2023-01-17T17:11:13.262Z,24.80
2023-01-17T17:13:49.488Z,25.80
2023-01-17T17:16:20.732Z,23.30
2023-01-17T17:18:55.662Z,23.00
2023-01-17T17:21:23.842Z,26.30
2023-01-17T17:23:57.056Z,29.70
2023-01-17T17:26:27.658Z,30.00
2023-01-17T17:28:55.630Z,26.40
2023-01-17T17:31:26.933Z,29.40
2023-01-17T17:33:59.480Z,31.90
2023-01-17T17:36:27.820Z,27.80
2023-01-17T17:38:56.719Z,25.40
2023-01-17T17:41:34.052Z,29.30
2023-01-17T17:44:03.613Z,25.40
2023-01-17T17:46:33.851Z,27.20
2023-01-17T17:49:01.991Z,30.00
2023-01-17T17:51:38.469Z,35.30
2023-01-17T17:54:09.844Z,33.20
2023-01-17T17:56:38.018Z,30.20
2023-01-17T17:59:09.283Z,33.70
2023-01-17T18:01:41.192Z,32.40
2023-01-17T18:04:12.400Z,38.20
2023-01-17T18:06:41.463Z,37.10
2023-01-17T18:09:11.556Z,37.20
2023-01-17T18:11:41.355Z,35.30
2023-01-17T18:14:12.606Z,33.30
2023-01-17T18:16:43.330Z,32.40
2023-01-17T18:19:17.304Z,33.70
2023-01-17T18:21:45.689Z,39.50
2023-01-17T18:24:17.096Z,34.90
2023-01-17T18:26:53.428Z,34.40
2023-01-17T18:29:22.248Z,33.30
2023-01-17T18:31:51.473Z,34.00
2023-01-17T18:34:24.172Z,32.00
2023-01-17T18:36:52.610Z,33.50
2023-01-17T18:39:29.329Z,35.80
2023-01-17T18:41:58.364Z,39.40
2023-01-17T18:44:27.543Z,31.70
2023-01-17T18:46:58.775Z,40.60
2023-01-17T18:49:26.817Z,38.70
2023-01-17T18:51:54.816Z,41.10
2023-01-17T18:54:22.681Z,38.80
2023-01-17T18:56:51.368Z,41.30
2023-01-17T18:59:19.851Z,39.70
2023-01-17T19:01:47.899Z,39.60
2023-01-17T19:04:17.320Z,37.90
2023-01-17T19:06:47.542Z,37.30
2023-01-17T19:09:16.487Z,41.30
2023-01-17T19:11:45.739Z,37.40
2023-01-17T19:14:14.630Z,34.40
2023-01-17T19:16:43.888Z,44.10
2023-01-17T19:19:15.109Z,38.50
2023-01-17T19:21:43.709Z,38.80
2023-01-17T19:24:13.440Z,44.30
2023-01-17T19:26:42.445Z,43.30
2023-01-17T19:29:10.634Z,43.10
2023-01-17T19:31:42.600Z,43.00
2023-01-17T19:34:13.961Z,38.90
2023-01-17T19:36:42.519Z,34.10
2023-01-17T19:39:10.498Z,44.20
2023-01-17T19:41:43.645Z,40.30
2023-01-17T19:44:13.387Z,35.50
2023-01-17T19:46:42.089Z,37.90
2023-01-17T19:49:10.528Z,41.70
2023-01-17T19:51:39.841Z,39.80
2023-01-17T19:54:08.577Z,39.30
2023-01-17T19:56:36.968Z,34.30
2023-01-17T19:59:04.798Z,38.50
2023-01-17T20:01:34.729Z,34.60
2023-01-17T20:04:03.645Z,43.10
2023-01-17T20:06:34.115Z,39.60
2023-01-17T20:09:02.376Z,42.00
2023-01-17T20:11:30.142Z,47.30
2023-01-17T20:13:59.986Z,38.20
2023-01-17T20:16:30.514Z,46.00
2023-01-17T20:18:59.542Z,48.70
2023-01-17T20:21:29.107Z,66.00
2023-01-17T20:23:59.292Z,73.00
2023-01-17T20:26:35.145Z,54.20
2023-01-17T20:29:11.923Z,45.70
2023-01-17T20:31:42.820Z,40.60
2023-01-17T20:34:13.083Z,37.40
2023-01-17T20:36:42.225Z,37.90
2023-01-17T20:39:12.509Z,41.30
2023-01-17T20:41:42.935Z,46.40
2023-01-17T20:44:13.822Z,53.10
2023-01-17T20:46:42.634Z,50.80
2023-01-17T20:49:15.174Z,49.50
2023-01-17T20:51:44.845Z,45.30
2023-01-17T20:54:15.147Z,50.30
2023-01-17T20:56:43.327Z,53.50
2023-01-17T20:59:14.608Z,49.70
2023-01-17T21:01:43.960Z,54.20
2023-01-17T21:04:13.191Z,54.20
2023-01-17T21:06:42.683Z,46.30
2023-01-17T21:09:15.382Z,60.90
2023-01-17T21:11:43.525Z,54.10
2023-01-17T21:14:11.390Z,55.30
2023-01-17T21:16:40.095Z,58.50
2023-01-17T21:19:12.198Z,60.10
2023-01-17T21:21:40.337Z,52.10
2023-01-17T21:24:08.798Z,56.90
2023-01-17T21:26:39.051Z,55.00
2023-01-17T21:29:07.303Z,54.20
2023-01-17T21:31:36.929Z,59.30
2023-01-17T21:34:07.583Z,66.60
2023-01-17T21:36:38.667Z,66.30
2023-01-17T21:39:11.347Z,68.10
2023-01-17T21:41:41.287Z,63.40
2023-01-17T21:44:14.650Z,69.10
2023-01-17T21:46:42.629Z,57.00
2023-01-17T21:49:12.018Z,60.30
2023-01-17T21:51:52.698Z,66.00
2023-01-17T21:54:43.713Z,64.70
2023-01-17T21:57:35.008Z,64.50
2023-01-17T22:00:06.505Z,67.50
2023-01-17T22:02:34.552Z,57.30
2023-01-17T22:05:02.404Z,65.70
2023-01-17T22:07:30.198Z,55.00
2023-01-17T22:09:58.237Z,50.30
2023-01-17T22:12:26.204Z,49.90
2023-01-17T22:14:54.692Z,55.50
2023-01-17T22:17:22.852Z,56.80
2023-01-17T22:19:50.818Z,52.90
2023-01-17T22:22:18.690Z,48.30
2023-01-17T22:24:47.067Z,50.90
2023-01-17T22:27:14.932Z,52.10
2023-01-17T22:29:42.692Z,55.20
2023-01-17T22:32:10.572Z,50.70
2023-01-17T22:34:38.421Z,57.80
2023-01-17T22:37:10.280Z,55.80
2023-01-17T22:39:39.217Z,51.40
2023-01-17T22:42:07.449Z,47.10
2023-01-17T22:44:35.308Z,46.40
2023-01-17T22:47:03.493Z,52.60
2023-01-17T22:49:31.405Z,44.70
2023-01-17T22:51:59.333Z,48.20
2023-01-17T22:54:27.182Z,47.90
2023-01-17T22:56:54.948Z,48.20
2023-01-17T22:59:24.252Z,56.20
2023-01-17T23:01:53.880Z,49.60
2023-01-17T23:04:21.719Z,54.40
2023-01-17T23:06:49.584Z,49.70
2023-01-17T23:09:17.767Z,55.80
2023-01-17T23:11:50.054Z,63.90
2023-01-17T23:14:22.394Z,68.50
2023-01-17T23:17:20.267Z,57.60
2023-01-17T23:19:51.161Z,57.10
2023-01-17T23:22:27.001Z,62.00
2023-01-17T23:24:58.098Z,55.50
2023-01-17T23:27:47.475Z,48.90
2023-01-17T23:30:39.293Z,44.20
2023-01-17T23:33:07.061Z,42.30
2023-01-17T23:35:41.573Z,39.20
2023-01-17T23:38:29.804Z,40.60
2023-01-17T23:41:27.626Z,44.50
2023-01-17T23:43:57.805Z,44.90
2023-01-17T23:46:26.741Z,39.80
2023-01-17T23:48:55.348Z,42.70
2023-01-17T23:51:23.456Z,48.90
2023-01-17T23:53:57.486Z,54.60
2023-01-17T23:56:25.549Z,58.40
2023-01-17T23:58:53.311Z,52.30
